Terminal Aerodrome Forecast
Issued by NWS Mt. Holly, NJ

Home | Current Version | Previous Version | Text Only | Print | Product List | Glossary On
Versions: 1 2 3 4 5 6 7 8 9 10 11 12 13 14 15 16 17 18 19 20 21 22 23 24
350
FTUS41 KPHI 300538
TAFILG
TAF
KILG 300538Z 3006/3106 03010KT P6SM FEW250
     FM301000 04006KT P6SM SCT250
     FM301600 11005KT P6SM BKN180
     FM301900 16006KT P6SM SCT050 BKN100 PROB30 3104/3106 5SM -RA
      BKN035=

USA.gov is the U.S. government's official web portal to all federal, state and local government web resources and services.